sensor_id;sensor_type;location;lat;lon;timestamp;P1;durP1;ratioP1;P2;durP2;ratioP2
53108;SDS011;39007;53.090;6.074;2022-12-07T00:01:46;9.82;;;2.30;;
53108;SDS011;39007;53.090;6.074;2022-12-07T00:04:13;10.50;;;2.63;;
53108;SDS011;39007;53.090;6.074;2022-12-07T00:06:40;11.60;;;2.47;;
53108;SDS011;39007;53.090;6.074;2022-12-07T00:09:09;11.52;;;2.95;;
53108;SDS011;39007;53.090;6.074;2022-12-07T00:11:36;17.10;;;2.70;;
53108;SDS011;39007;53.090;6.074;2022-12-07T00:14:03;13.95;;;2.40;;
53108;SDS011;39007;53.090;6.074;2022-12-07T00:16:31;10.55;;;2.42;;
53108;SDS011;39007;53.090;6.074;2022-12-07T00:18:57;15.60;;;2.25;;
53108;SDS011;39007;53.090;6.074;2022-12-07T00:21:24;11.68;;;2.20;;
53108;SDS011;39007;53.090;6.074;2022-12-07T00:23:51;16.85;;;2.33;;
53108;SDS011;39007;53.090;6.074;2022-12-07T00:26:21;10.88;;;2.30;;
53108;SDS011;39007;53.090;6.074;2022-12-07T00:28:48;13.88;;;2.40;;
53108;SDS011;39007;53.090;6.074;2022-12-07T00:31:15;14.80;;;2.83;;
53108;SDS011;39007;53.090;6.074;2022-12-07T00:33:42;8.55;;;2.13;;
53108;SDS011;39007;53.090;6.074;2022-12-07T00:36:09;11.15;;;2.10;;
53108;SDS011;39007;53.090;6.074;2022-12-07T00:38:36;11.35;;;2.25;;
53108;SDS011;39007;53.090;6.074;2022-12-07T00:41:04;12.82;;;2.08;;
53108;SDS011;39007;53.090;6.074;2022-12-07T00:43:30;10.23;;;2.20;;
53108;SDS011;39007;53.090;6.074;2022-12-07T00:45:56;9.57;;;2.00;;
53108;SDS011;39007;53.090;6.074;2022-12-07T00:48:23;9.93;;;1.88;;
53108;SDS011;39007;53.090;6.074;2022-12-07T00:50:49;9.15;;;2.10;;
53108;SDS011;39007;53.090;6.074;2022-12-07T00:53:16;11.20;;;1.92;;
53108;SDS011;39007;53.090;6.074;2022-12-07T00:55:43;13.48;;;2.15;;
53108;SDS011;39007;53.090;6.074;2022-12-07T00:58:10;10.57;;;2.10;;
53108;SDS011;39007;53.090;6.074;2022-12-07T01:00:37;13.35;;;1.75;;
53108;SDS011;39007;53.090;6.074;2022-12-07T01:03:04;10.30;;;1.80;;
53108;SDS011;39007;53.090;6.074;2022-12-07T01:05:30;10.13;;;2.10;;
53108;SDS011;39007;53.090;6.074;2022-12-07T01:07:56;10.50;;;1.60;;
53108;SDS011;39007;53.090;6.074;2022-12-07T01:10:22;14.00;;;2.25;;
53108;SDS011;39007;53.090;6.074;2022-12-07T01:12:48;11.35;;;2.00;;
53108;SDS011;39007;53.090;6.074;2022-12-07T01:15:14;11.15;;;1.85;;
53108;SDS011;39007;53.090;6.074;2022-12-07T01:17:40;11.95;;;1.98;;
53108;SDS011;39007;53.090;6.074;2022-12-07T01:20:06;14.18;;;1.95;;
53108;SDS011;39007;53.090;6.074;2022-12-07T01:22:36;9.95;;;1.70;;
53108;SDS011;39007;53.090;6.074;2022-12-07T01:25:03;9.75;;;2.05;;
53108;SDS011;39007;53.090;6.074;2022-12-07T01:27:29;8.43;;;1.75;;
53108;SDS011;39007;53.090;6.074;2022-12-07T01:29:56;9.85;;;1.60;;
53108;SDS011;39007;53.090;6.074;2022-12-07T01:32:22;12.45;;;2.10;;
53108;SDS011;39007;53.090;6.074;2022-12-07T01:34:48;12.30;;;2.00;;
53108;SDS011;39007;53.090;6.074;2022-12-07T01:37:14;15.32;;;1.98;;
53108;SDS011;39007;53.090;6.074;2022-12-07T01:39:40;9.90;;;1.90;;
53108;SDS011;39007;53.090;6.074;2022-12-07T01:42:10;10.73;;;1.92;;
53108;SDS011;39007;53.090;6.074;2022-12-07T01:47:20;12.95;;;1.95;;
53108;SDS011;39007;53.090;6.074;2022-12-07T01:49:47;11.48;;;1.88;;
53108;SDS011;39007;53.090;6.074;2022-12-07T01:52:27;13.35;;;1.90;;
53108;SDS011;39007;53.090;6.074;2022-12-07T01:54:56;8.32;;;1.85;;
53108;SDS011;39007;53.090;6.074;2022-12-07T01:57:23;10.27;;;1.90;;
53108;SDS011;39007;53.090;6.074;2022-12-07T01:59:50;9.68;;;1.85;;
53108;SDS011;39007;53.090;6.074;2022-12-07T02:02:23;10.38;;;2.17;;
53108;SDS011;39007;53.090;6.074;2022-12-07T02:04:50;10.73;;;1.98;;
53108;SDS011;39007;53.090;6.074;2022-12-07T02:07:17;7.97;;;1.50;;
53108;SDS011;39007;53.090;6.074;2022-12-07T02:09:44;6.55;;;1.85;;
53108;SDS011;39007;53.090;6.074;2022-12-07T02:12:10;6.60;;;1.55;;
53108;SDS011;39007;53.090;6.074;2022-12-07T02:14:36;7.95;;;1.67;;
53108;SDS011;39007;53.090;6.074;2022-12-07T02:25:02;7.65;;;1.67;;
53108;SDS011;39007;53.090;6.074;2022-12-07T02:35:06;8.75;;;1.65;;
53108;SDS011;39007;53.090;6.074;2022-12-07T02:37:49;9.18;;;1.80;;
53108;SDS011;39007;53.090;6.074;2022-12-07T02:43:11;8.27;;;1.75;;
53108;SDS011;39007;53.090;6.074;2022-12-07T02:45:38;10.38;;;2.22;;
53108;SDS011;39007;53.090;6.074;2022-12-07T02:48:05;10.13;;;1.80;;
53108;SDS011;39007;53.090;6.074;2022-12-07T02:50:32;10.30;;;2.35;;
53108;SDS011;39007;53.090;6.074;2022-12-07T02:52:58;11.43;;;1.90;;
53108;SDS011;39007;53.090;6.074;2022-12-07T02:55:28;11.27;;;2.17;;
53108;SDS011;39007;53.090;6.074;2022-12-07T02:58:18;8.45;;;1.60;;
53108;SDS011;39007;53.090;6.074;2022-12-07T03:00:52;13.88;;;2.05;;
53108;SDS011;39007;53.090;6.074;2022-12-07T03:03:20;10.73;;;1.95;;
53108;SDS011;39007;53.090;6.074;2022-12-07T03:11:14;15.10;;;2.50;;
53108;SDS011;39007;53.090;6.074;2022-12-07T03:16:40;12.73;;;1.85;;
53108;SDS011;39007;53.090;6.074;2022-12-07T03:19:08;11.98;;;2.03;;
53108;SDS011;39007;53.090;6.074;2022-12-07T03:21:40;10.93;;;1.90;;
53108;SDS011;39007;53.090;6.074;2022-12-07T03:24:12;15.35;;;2.47;;
53108;SDS011;39007;53.090;6.074;2022-12-07T03:26:44;8.60;;;1.83;;
53108;SDS011;39007;53.090;6.074;2022-12-07T03:29:20;11.60;;;2.00;;
53108;SDS011;39007;53.090;6.074;2022-12-07T03:31:51;8.85;;;1.50;;
53108;SDS011;39007;53.090;6.074;2022-12-07T03:34:26;9.35;;;1.77;;
53108;SDS011;39007;53.090;6.074;2022-12-07T03:37:04;10.55;;;1.73;;
53108;SDS011;39007;53.090;6.074;2022-12-07T03:39:33;7.35;;;1.42;;
53108;SDS011;39007;53.090;6.074;2022-12-07T03:42:01;12.90;;;1.80;;
53108;SDS011;39007;53.090;6.074;2022-12-07T03:44:29;10.00;;;1.60;;
53108;SDS011;39007;53.090;6.074;2022-12-07T03:46:59;10.60;;;1.70;;
53108;SDS011;39007;53.090;6.074;2022-12-07T03:49:28;8.13;;;1.52;;
53108;SDS011;39007;53.090;6.074;2022-12-07T03:55:11;7.78;;;1.65;;
53108;SDS011;39007;53.090;6.074;2022-12-07T03:57:11;8.48;;;1.83;;
53108;SDS011;39007;53.090;6.074;2022-12-07T03:59:37;12.27;;;1.60;;
53108;SDS011;39007;53.090;6.074;2022-12-07T04:02:05;8.85;;;1.77;;
53108;SDS011;39007;53.090;6.074;2022-12-07T04:04:31;16.65;;;2.17;;
53108;SDS011;39007;53.090;6.074;2022-12-07T04:06:58;13.63;;;2.60;;
53108;SDS011;39007;53.090;6.074;2022-12-07T04:09:24;13.43;;;2.58;;
53108;SDS011;39007;53.090;6.074;2022-12-07T04:11:51;10.00;;;1.92;;
53108;SDS011;39007;53.090;6.074;2022-12-07T04:14:17;11.75;;;1.90;;
53108;SDS011;39007;53.090;6.074;2022-12-07T04:16:43;10.80;;;2.05;;
53108;SDS011;39007;53.090;6.074;2022-12-07T04:19:09;12.13;;;2.10;;
53108;SDS011;39007;53.090;6.074;2022-12-07T04:21:36;10.25;;;1.80;;
53108;SDS011;39007;53.090;6.074;2022-12-07T04:24:02;9.85;;;1.83;;
53108;SDS011;39007;53.090;6.074;2022-12-07T04:26:28;8.65;;;2.05;;
53108;SDS011;39007;53.090;6.074;2022-12-07T04:28:54;9.88;;;1.95;;
53108;SDS011;39007;53.090;6.074;2022-12-07T04:31:20;11.48;;;1.88;;
53108;SDS011;39007;53.090;6.074;2022-12-07T04:33:46;11.25;;;1.60;;
53108;SDS011;39007;53.090;6.074;2022-12-07T04:36:12;10.75;;;1.73;;
53108;SDS011;39007;53.090;6.074;2022-12-07T04:38:38;10.88;;;2.05;;
53108;SDS011;39007;53.090;6.074;2022-12-07T04:41:08;8.80;;;1.65;;
53108;SDS011;39007;53.090;6.074;2022-12-07T04:43:34;11.55;;;2.25;;
53108;SDS011;39007;53.090;6.074;2022-12-07T04:46:01;14.90;;;1.88;;
53108;SDS011;39007;53.090;6.074;2022-12-07T04:48:27;14.02;;;1.80;;
53108;SDS011;39007;53.090;6.074;2022-12-07T04:50:53;11.15;;;2.25;;
53108;SDS011;39007;53.090;6.074;2022-12-07T04:53:19;11.18;;;1.90;;
53108;SDS011;39007;53.090;6.074;2022-12-07T04:55:45;11.25;;;2.00;;
53108;SDS011;39007;53.090;6.074;2022-12-07T04:58:12;11.70;;;2.00;;
53108;SDS011;39007;53.090;6.074;2022-12-07T05:00:38;11.40;;;2.00;;
53108;SDS011;39007;53.090;6.074;2022-12-07T05:03:04;12.52;;;2.17;;
53108;SDS011;39007;53.090;6.074;2022-12-07T05:05:30;9.85;;;1.90;;
53108;SDS011;39007;53.090;6.074;2022-12-07T05:07:57;11.38;;;1.73;;
53108;SDS011;39007;53.090;6.074;2022-12-07T05:10:23;10.55;;;1.92;;
53108;SDS011;39007;53.090;6.074;2022-12-07T05:12:49;13.32;;;2.10;;
53108;SDS011;39007;53.090;6.074;2022-12-07T05:15:15;11.07;;;1.67;;
53108;SDS011;39007;53.090;6.074;2022-12-07T05:17:41;9.50;;;1.92;;
53108;SDS011;39007;53.090;6.074;2022-12-07T05:20:08;11.15;;;1.92;;
53108;SDS011;39007;53.090;6.074;2022-12-07T05:22:34;7.20;;;1.55;;
53108;SDS011;39007;53.090;6.074;2022-12-07T05:25:00;6.85;;;1.65;;
53108;SDS011;39007;53.090;6.074;2022-12-07T05:27:26;11.05;;;1.75;;
53108;SDS011;39007;53.090;6.074;2022-12-07T05:29:52;9.48;;;1.83;;
53108;SDS011;39007;53.090;6.074;2022-12-07T05:32:19;9.07;;;1.88;;
53108;SDS011;39007;53.090;6.074;2022-12-07T05:34:45;9.52;;;1.70;;
53108;SDS011;39007;53.090;6.074;2022-12-07T05:37:11;8.77;;;1.77;;
53108;SDS011;39007;53.090;6.074;2022-12-07T05:39:37;10.43;;;1.70;;
53108;SDS011;39007;53.090;6.074;2022-12-07T05:42:06;10.38;;;1.65;;
53108;SDS011;39007;53.090;6.074;2022-12-07T05:44:38;12.85;;;2.40;;
53108;SDS011;39007;53.090;6.074;2022-12-07T05:47:04;12.18;;;2.28;;
53108;SDS011;39007;53.090;6.074;2022-12-07T05:49:31;9.45;;;2.28;;
53108;SDS011;39007;53.090;6.074;2022-12-07T05:51:57;9.27;;;2.10;;
53108;SDS011;39007;53.090;6.074;2022-12-07T05:54:23;17.65;;;2.30;;
53108;SDS011;39007;53.090;6.074;2022-12-07T05:56:49;11.45;;;2.15;;
53108;SDS011;39007;53.090;6.074;2022-12-07T05:59:15;12.75;;;2.40;;
53108;SDS011;39007;53.090;6.074;2022-12-07T06:01:48;10.40;;;1.80;;
53108;SDS011;39007;53.090;6.074;2022-12-07T06:04:15;11.93;;;2.00;;
53108;SDS011;39007;53.090;6.074;2022-12-07T06:06:41;9.73;;;2.20;;
53108;SDS011;39007;53.090;6.074;2022-12-07T06:09:07;10.60;;;1.90;;
53108;SDS011;39007;53.090;6.074;2022-12-07T06:11:33;13.88;;;1.80;;
53108;SDS011;39007;53.090;6.074;2022-12-07T06:14:18;12.30;;;2.17;;
53108;SDS011;39007;53.090;6.074;2022-12-07T06:16:44;9.05;;;2.05;;
53108;SDS011;39007;53.090;6.074;2022-12-07T06:19:10;12.68;;;1.70;;
53108;SDS011;39007;53.090;6.074;2022-12-07T06:21:36;11.63;;;2.08;;
53108;SDS011;39007;53.090;6.074;2022-12-07T06:24:03;11.05;;;1.92;;
53108;SDS011;39007;53.090;6.074;2022-12-07T06:26:29;13.65;;;2.65;;
53108;SDS011;39007;53.090;6.074;2022-12-07T06:28:55;9.45;;;1.70;;
53108;SDS011;39007;53.090;6.074;2022-12-07T06:31:21;8.85;;;1.83;;
53108;SDS011;39007;53.090;6.074;2022-12-07T06:33:47;10.77;;;2.10;;
53108;SDS011;39007;53.090;6.074;2022-12-07T06:36:14;11.45;;;1.80;;
53108;SDS011;39007;53.090;6.074;2022-12-07T06:38:40;10.30;;;1.67;;
53108;SDS011;39007;53.090;6.074;2022-12-07T06:41:06;10.00;;;1.95;;
53108;SDS011;39007;53.090;6.074;2022-12-07T06:43:32;10.50;;;2.03;;
53108;SDS011;39007;53.090;6.074;2022-12-07T06:45:58;7.65;;;2.03;;
53108;SDS011;39007;53.090;6.074;2022-12-07T06:48:25;10.00;;;2.00;;
53108;SDS011;39007;53.090;6.074;2022-12-07T06:50:51;9.70;;;1.92;;
53108;SDS011;39007;53.090;6.074;2022-12-07T06:53:17;8.07;;;1.80;;
53108;SDS011;39007;53.090;6.074;2022-12-07T06:55:43;10.82;;;1.85;;
53108;SDS011;39007;53.090;6.074;2022-12-07T06:58:09;9.57;;;2.15;;
53108;SDS011;39007;53.090;6.074;2022-12-07T07:00:35;15.20;;;2.20;;
53108;SDS011;39007;53.090;6.074;2022-12-07T07:03:01;7.65;;;2.03;;
53108;SDS011;39007;53.090;6.074;2022-12-07T07:05:27;8.52;;;2.20;;
53108;SDS011;39007;53.090;6.074;2022-12-07T07:07:53;15.38;;;2.47;;
53108;SDS011;39007;53.090;6.074;2022-12-07T07:10:20;9.98;;;2.20;;
53108;SDS011;39007;53.090;6.074;2022-12-07T07:12:46;11.35;;;2.25;;
53108;SDS011;39007;53.090;6.074;2022-12-07T07:15:12;15.95;;;2.53;;
53108;SDS011;39007;53.090;6.074;2022-12-07T07:17:38;11.93;;;2.22;;
53108;SDS011;39007;53.090;6.074;2022-12-07T07:20:04;12.75;;;2.40;;
53108;SDS011;39007;53.090;6.074;2022-12-07T07:22:31;15.43;;;2.78;;
53108;SDS011;39007;53.090;6.074;2022-12-07T07:24:57;14.18;;;2.30;;
53108;SDS011;39007;53.090;6.074;2022-12-07T07:27:23;10.90;;;2.65;;
53108;SDS011;39007;53.090;6.074;2022-12-07T07:29:49;11.45;;;2.08;;
53108;SDS011;39007;53.090;6.074;2022-12-07T07:32:15;11.10;;;2.25;;
53108;SDS011;39007;53.090;6.074;2022-12-07T07:34:41;18.75;;;3.13;;
53108;SDS011;39007;53.090;6.074;2022-12-07T07:37:07;14.75;;;2.63;;
53108;SDS011;39007;53.090;6.074;2022-12-07T07:39:36;14.48;;;2.65;;
53108;SDS011;39007;53.090;6.074;2022-12-07T07:42:02;12.73;;;2.45;;
53108;SDS011;39007;53.090;6.074;2022-12-07T07:44:28;10.38;;;2.13;;
53108;SDS011;39007;53.090;6.074;2022-12-07T07:46:54;10.60;;;2.22;;
53108;SDS011;39007;53.090;6.074;2022-12-07T07:49:20;11.95;;;2.50;;
53108;SDS011;39007;53.090;6.074;2022-12-07T07:51:46;12.32;;;2.30;;
53108;SDS011;39007;53.090;6.074;2022-12-07T07:54:12;12.93;;;2.35;;
53108;SDS011;39007;53.090;6.074;2022-12-07T07:56:40;14.70;;;2.40;;
53108;SDS011;39007;53.090;6.074;2022-12-07T07:59:06;18.73;;;2.97;;
53108;SDS011;39007;53.090;6.074;2022-12-07T08:01:32;17.00;;;2.92;;
53108;SDS011;39007;53.090;6.074;2022-12-07T08:03:58;14.52;;;3.17;;
53108;SDS011;39007;53.090;6.074;2022-12-07T08:06:24;11.85;;;2.80;;
53108;SDS011;39007;53.090;6.074;2022-12-07T08:08:51;16.63;;;2.92;;
53108;SDS011;39007;53.090;6.074;2022-12-07T08:11:17;11.38;;;2.50;;
53108;SDS011;39007;53.090;6.074;2022-12-07T08:13:47;13.30;;;2.88;;
53108;SDS011;39007;53.090;6.074;2022-12-07T08:16:13;13.23;;;2.80;;
53108;SDS011;39007;53.090;6.074;2022-12-07T08:18:40;14.82;;;2.83;;
53108;SDS011;39007;53.090;6.074;2022-12-07T08:21:07;15.45;;;2.92;;
53108;SDS011;39007;53.090;6.074;2022-12-07T08:23:34;13.55;;;2.60;;
53108;SDS011;39007;53.090;6.074;2022-12-07T08:26:01;11.00;;;2.70;;
53108;SDS011;39007;53.090;6.074;2022-12-07T08:28:28;15.27;;;3.83;;
53108;SDS011;39007;53.090;6.074;2022-12-07T08:31:04;12.77;;;5.70;;
53108;SDS011;39007;53.090;6.074;2022-12-07T08:33:31;14.90;;;2.60;;
53108;SDS011;39007;53.090;6.074;2022-12-07T08:36:01;12.73;;;2.50;;
53108;SDS011;39007;53.090;6.074;2022-12-07T08:38:27;11.10;;;2.90;;
53108;SDS011;39007;53.090;6.074;2022-12-07T08:40:54;10.27;;;2.60;;
53108;SDS011;39007;53.090;6.074;2022-12-07T08:43:20;10.68;;;3.38;;
53108;SDS011;39007;53.090;6.074;2022-12-07T08:45:48;11.55;;;2.70;;
53108;SDS011;39007;53.090;6.074;2022-12-07T08:48:14;9.65;;;2.40;;
53108;SDS011;39007;53.090;6.074;2022-12-07T08:50:43;13.65;;;2.72;;
53108;SDS011;39007;53.090;6.074;2022-12-07T08:53:09;17.27;;;2.78;;
53108;SDS011;39007;53.090;6.074;2022-12-07T08:55:35;13.45;;;2.40;;
53108;SDS011;39007;53.090;6.074;2022-12-07T08:58:01;11.65;;;2.55;;
53108;SDS011;39007;53.090;6.074;2022-12-07T09:00:28;11.40;;;2.53;;
53108;SDS011;39007;53.090;6.074;2022-12-07T09:02:54;13.70;;;2.85;;
53108;SDS011;39007;53.090;6.074;2022-12-07T09:05:20;12.85;;;2.25;;
53108;SDS011;39007;53.090;6.074;2022-12-07T09:07:48;12.02;;;2.40;;
53108;SDS011;39007;53.090;6.074;2022-12-07T09:10:15;10.85;;;2.15;;
53108;SDS011;39007;53.090;6.074;2022-12-07T09:12:41;9.27;;;2.08;;
53108;SDS011;39007;53.090;6.074;2022-12-07T09:15:07;13.98;;;2.20;;
53108;SDS011;39007;53.090;6.074;2022-12-07T09:17:34;13.48;;;2.50;;
53108;SDS011;39007;53.090;6.074;2022-12-07T09:20:01;9.93;;;2.20;;
53108;SDS011;39007;53.090;6.074;2022-12-07T09:22:29;12.13;;;3.75;;
53108;SDS011;39007;53.090;6.074;2022-12-07T09:24:56;16.92;;;5.78;;
53108;SDS011;39007;53.090;6.074;2022-12-07T09:27:22;11.65;;;3.53;;
53108;SDS011;39007;53.090;6.074;2022-12-07T09:29:48;12.90;;;3.92;;
53108;SDS011;39007;53.090;6.074;2022-12-07T09:32:14;11.43;;;3.38;;
53108;SDS011;39007;53.090;6.074;2022-12-07T09:34:40;7.15;;;2.53;;
53108;SDS011;39007;53.090;6.074;2022-12-07T09:37:06;7.53;;;2.28;;
53108;SDS011;39007;53.090;6.074;2022-12-07T09:39:33;6.88;;;2.00;;
53108;SDS011;39007;53.090;6.074;2022-12-07T09:41:59;11.50;;;2.10;;
53108;SDS011;39007;53.090;6.074;2022-12-07T09:44:28;10.30;;;2.42;;
53108;SDS011;39007;53.090;6.074;2022-12-07T09:46:54;8.63;;;1.85;;
53108;SDS011;39007;53.090;6.074;2022-12-07T09:49:22;12.18;;;2.90;;
53108;SDS011;39007;53.090;6.074;2022-12-07T09:51:59;9.25;;;2.00;;
53108;SDS011;39007;53.090;6.074;2022-12-07T09:54:26;11.27;;;2.30;;
53108;SDS011;39007;53.090;6.074;2022-12-07T09:56:52;9.95;;;2.20;;
53108;SDS011;39007;53.090;6.074;2022-12-07T09:59:18;10.43;;;2.47;;
53108;SDS011;39007;53.090;6.074;2022-12-07T10:01:48;9.52;;;2.35;;
53108;SDS011;39007;53.090;6.074;2022-12-07T10:04:22;10.55;;;2.00;;
53108;SDS011;39007;53.090;6.074;2022-12-07T10:06:50;10.80;;;2.05;;
53108;SDS011;39007;53.090;6.074;2022-12-07T10:09:17;8.27;;;1.90;;
53108;SDS011;39007;53.090;6.074;2022-12-07T10:12:03;9.27;;;1.70;;
53108;SDS011;39007;53.090;6.074;2022-12-07T10:14:31;8.90;;;2.05;;
53108;SDS011;39007;53.090;6.074;2022-12-07T10:16:57;10.45;;;2.55;;
53108;SDS011;39007;53.090;6.074;2022-12-07T10:19:25;9.07;;;2.08;;
53108;SDS011;39007;53.090;6.074;2022-12-07T10:24:26;10.35;;;2.10;;
53108;SDS011;39007;53.090;6.074;2022-12-07T10:26:52;10.75;;;2.17;;
53108;SDS011;39007;53.090;6.074;2022-12-07T10:34:29;9.40;;;2.10;;
53108;SDS011;39007;53.090;6.074;2022-12-07T10:39:45;8.00;;;1.92;;
53108;SDS011;39007;53.090;6.074;2022-12-07T10:44:47;9.20;;;1.83;;
53108;SDS011;39007;53.090;6.074;2022-12-07T10:47:19;9.38;;;2.47;;
53108;SDS011;39007;53.090;6.074;2022-12-07T11:09:59;7.13;;;1.40;;
53108;SDS011;39007;53.090;6.074;2022-12-07T11:12:43;6.25;;;1.60;;
53108;SDS011;39007;53.090;6.074;2022-12-07T11:20:31;5.55;;;1.25;;
53108;SDS011;39007;53.090;6.074;2022-12-07T11:25:43;5.32;;;1.20;;
53108;SDS011;39007;53.090;6.074;2022-12-07T11:30:45;5.95;;;1.70;;
53108;SDS011;39007;53.090;6.074;2022-12-07T11:33:17;4.32;;;1.30;;
53108;SDS011;39007;53.090;6.074;2022-12-07T11:35:57;8.18;;;1.67;;
53108;SDS011;39007;53.090;6.074;2022-12-07T11:38:33;7.55;;;1.40;;
53108;SDS011;39007;53.090;6.074;2022-12-07T11:41:02;4.63;;;1.60;;
53108;SDS011;39007;53.090;6.074;2022-12-07T11:46:12;8.00;;;1.92;;
53108;SDS011;39007;53.090;6.074;2022-12-07T11:48:41;7.18;;;1.55;;
53108;SDS011;39007;53.090;6.074;2022-12-07T11:51:12;9.07;;;1.92;;
53108;SDS011;39007;53.090;6.074;2022-12-07T11:56:12;7.32;;;1.70;;
53108;SDS011;39007;53.090;6.074;2022-12-07T12:01:22;13.95;;;2.58;;
53108;SDS011;39007;53.090;6.074;2022-12-07T12:03:52;12.30;;;1.92;;
53108;SDS011;39007;53.090;6.074;2022-12-07T12:06:20;6.85;;;1.95;;
53108;SDS011;39007;53.090;6.074;2022-12-07T12:08:49;7.63;;;2.00;;
53108;SDS011;39007;53.090;6.074;2022-12-07T12:21:55;7.70;;;1.80;;
53108;SDS011;39007;53.090;6.074;2022-12-07T12:24:23;5.40;;;1.58;;
53108;SDS011;39007;53.090;6.074;2022-12-07T12:26:57;8.65;;;1.80;;
53108;SDS011;39007;53.090;6.074;2022-12-07T12:29:27;7.97;;;1.60;;
53108;SDS011;39007;53.090;6.074;2022-12-07T12:42:47;4.32;;;1.35;;
53108;SDS011;39007;53.090;6.074;2022-12-07T12:45:18;7.70;;;1.65;;
53108;SDS011;39007;53.090;6.074;2022-12-07T12:50:18;8.25;;;1.55;;
53108;SDS011;39007;53.090;6.074;2022-12-07T12:52:47;5.60;;;1.73;;
53108;SDS011;39007;53.090;6.074;2022-12-07T12:55:15;8.43;;;1.83;;
53108;SDS011;39007;53.090;6.074;2022-12-07T12:57:46;6.35;;;1.80;;
53108;SDS011;39007;53.090;6.074;2022-12-07T13:00:16;6.90;;;1.60;;
53108;SDS011;39007;53.090;6.074;2022-12-07T13:02:55;8.45;;;1.60;;
53108;SDS011;39007;53.090;6.074;2022-12-07T13:05:23;8.45;;;1.45;;
53108;SDS011;39007;53.090;6.074;2022-12-07T13:07:51;5.38;;;1.30;;
53108;SDS011;39007;53.090;6.074;2022-12-07T13:15:36;5.28;;;1.65;;
53108;SDS011;39007;53.090;6.074;2022-12-07T13:18:04;7.68;;;1.60;;
53108;SDS011;39007;53.090;6.074;2022-12-07T13:20:43;9.15;;;1.90;;
53108;SDS011;39007;53.090;6.074;2022-12-07T13:23:09;7.15;;;1.60;;
53108;SDS011;39007;53.090;6.074;2022-12-07T13:25:37;8.07;;;1.90;;
53108;SDS011;39007;53.090;6.074;2022-12-07T13:28:09;7.38;;;1.70;;
53108;SDS011;39007;53.090;6.074;2022-12-07T13:30:43;5.47;;;1.77;;
53108;SDS011;39007;53.090;6.074;2022-12-07T13:33:10;9.18;;;2.00;;
53108;SDS011;39007;53.090;6.074;2022-12-07T13:35:37;9.13;;;2.10;;
53108;SDS011;39007;53.090;6.074;2022-12-07T13:41:03;8.88;;;2.03;;
53108;SDS011;39007;53.090;6.074;2022-12-07T13:43:29;6.40;;;1.67;;
53108;SDS011;39007;53.090;6.074;2022-12-07T13:45:56;6.60;;;1.80;;
53108;SDS011;39007;53.090;6.074;2022-12-07T13:51:24;6.32;;;1.58;;
53108;SDS011;39007;53.090;6.074;2022-12-07T13:54:33;8.25;;;1.60;;
53108;SDS011;39007;53.090;6.074;2022-12-07T13:56:40;11.98;;;2.00;;
53108;SDS011;39007;53.090;6.074;2022-12-07T13:59:14;11.35;;;1.70;;
53108;SDS011;39007;53.090;6.074;2022-12-07T14:01:41;9.50;;;1.70;;
53108;SDS011;39007;53.090;6.074;2022-12-07T14:06:47;4.70;;;1.40;;
53108;SDS011;39007;53.090;6.074;2022-12-07T14:09:18;6.53;;;1.50;;
53108;SDS011;39007;53.090;6.074;2022-12-07T14:11:45;9.45;;;1.45;;
53108;SDS011;39007;53.090;6.074;2022-12-07T14:14:13;6.70;;;1.70;;
53108;SDS011;39007;53.090;6.074;2022-12-07T14:16:41;6.55;;;1.45;;
53108;SDS011;39007;53.090;6.074;2022-12-07T14:19:39;7.30;;;1.45;;
53108;SDS011;39007;53.090;6.074;2022-12-07T14:24:58;5.53;;;1.67;;
53108;SDS011;39007;53.090;6.074;2022-12-07T14:27:24;6.32;;;1.73;;
53108;SDS011;39007;53.090;6.074;2022-12-07T14:29:55;5.07;;;1.80;;
53108;SDS011;39007;53.090;6.074;2022-12-07T14:32:28;5.38;;;1.50;;
53108;SDS011;39007;53.090;6.074;2022-12-07T14:35:00;5.97;;;1.50;;
53108;SDS011;39007;53.090;6.074;2022-12-07T14:37:26;6.25;;;1.23;;
53108;SDS011;39007;53.090;6.074;2022-12-07T14:39:53;5.28;;;1.27;;
53108;SDS011;39007;53.090;6.074;2022-12-07T14:42:19;4.53;;;1.30;;
53108;SDS011;39007;53.090;6.074;2022-12-07T14:44:45;3.85;;;1.20;;
53108;SDS011;39007;53.090;6.074;2022-12-07T14:47:11;5.32;;;1.40;;
53108;SDS011;39007;53.090;6.074;2022-12-07T14:49:38;6.80;;;1.70;;
53108;SDS011;39007;53.090;6.074;2022-12-07T14:52:04;3.95;;;1.38;;
53108;SDS011;39007;53.090;6.074;2022-12-07T14:54:31;6.13;;;1.20;;
53108;SDS011;39007;53.090;6.074;2022-12-07T14:56:57;7.45;;;1.55;;
53108;SDS011;39007;53.090;6.074;2022-12-07T14:59:24;8.07;;;2.03;;
53108;SDS011;39007;53.090;6.074;2022-12-07T15:01:50;7.03;;;1.83;;
53108;SDS011;39007;53.090;6.074;2022-12-07T15:04:16;4.82;;;1.20;;
53108;SDS011;39007;53.090;6.074;2022-12-07T15:06:53;4.57;;;1.33;;
53108;SDS011;39007;53.090;6.074;2022-12-07T15:09:19;4.13;;;1.33;;
53108;SDS011;39007;53.090;6.074;2022-12-07T15:11:46;7.28;;;1.30;;
53108;SDS011;39007;53.090;6.074;2022-12-07T15:14:12;7.82;;;1.30;;
53108;SDS011;39007;53.090;6.074;2022-12-07T15:16:39;7.00;;;1.25;;
53108;SDS011;39007;53.090;6.074;2022-12-07T15:19:08;3.72;;;1.23;;
53108;SDS011;39007;53.090;6.074;2022-12-07T15:21:36;5.43;;;1.33;;
53108;SDS011;39007;53.090;6.074;2022-12-07T15:24:02;4.22;;;1.30;;
53108;SDS011;39007;53.090;6.074;2022-12-07T15:26:28;4.63;;;1.50;;
53108;SDS011;39007;53.090;6.074;2022-12-07T15:28:54;6.70;;;1.50;;
53108;SDS011;39007;53.090;6.074;2022-12-07T15:31:20;5.55;;;1.48;;
53108;SDS011;39007;53.090;6.074;2022-12-07T15:33:46;5.05;;;1.40;;
53108;SDS011;39007;53.090;6.074;2022-12-07T15:36:20;9.48;;;1.95;;
53108;SDS011;39007;53.090;6.074;2022-12-07T15:38:47;6.82;;;1.70;;
53108;SDS011;39007;53.090;6.074;2022-12-07T15:41:13;4.75;;;1.63;;
53108;SDS011;39007;53.090;6.074;2022-12-07T15:43:39;5.05;;;1.50;;
53108;SDS011;39007;53.090;6.074;2022-12-07T15:46:34;6.40;;;1.65;;
53108;SDS011;39007;53.090;6.074;2022-12-07T15:49:01;7.60;;;1.73;;
53108;SDS011;39007;53.090;6.074;2022-12-07T15:51:27;6.38;;;1.77;;
53108;SDS011;39007;53.090;6.074;2022-12-07T15:53:53;5.95;;;1.85;;
53108;SDS011;39007;53.090;6.074;2022-12-07T15:56:20;6.38;;;2.28;;
53108;SDS011;39007;53.090;6.074;2022-12-07T15:58:46;9.15;;;2.55;;
53108;SDS011;39007;53.090;6.074;2022-12-07T16:01:16;7.05;;;2.20;;
53108;SDS011;39007;53.090;6.074;2022-12-07T16:03:43;7.25;;;2.15;;
53108;SDS011;39007;53.090;6.074;2022-12-07T16:06:09;5.90;;;2.50;;
53108;SDS011;39007;53.090;6.074;2022-12-07T16:08:35;10.50;;;2.50;;
53108;SDS011;39007;53.090;6.074;2022-12-07T16:11:05;9.93;;;2.83;;
53108;SDS011;39007;53.090;6.074;2022-12-07T16:13:32;10.25;;;3.30;;
53108;SDS011;39007;53.090;6.074;2022-12-07T16:16:01;6.03;;;2.55;;
53108;SDS011;39007;53.090;6.074;2022-12-07T16:18:27;7.72;;;2.72;;
53108;SDS011;39007;53.090;6.074;2022-12-07T16:20:53;9.43;;;4.00;;
53108;SDS011;39007;53.090;6.074;2022-12-07T16:23:19;10.57;;;3.45;;
53108;SDS011;39007;53.090;6.074;2022-12-07T16:25:46;13.13;;;5.60;;
53108;SDS011;39007;53.090;6.074;2022-12-07T16:28:12;7.07;;;2.67;;
53108;SDS011;39007;53.090;6.074;2022-12-07T16:30:38;6.85;;;1.98;;
53108;SDS011;39007;53.090;6.074;2022-12-07T16:33:04;8.60;;;2.28;;
53108;SDS011;39007;53.090;6.074;2022-12-07T16:35:30;6.55;;;2.42;;
53108;SDS011;39007;53.090;6.074;2022-12-07T16:37:56;8.20;;;2.47;;
53108;SDS011;39007;53.090;6.074;2022-12-07T16:40:22;8.82;;;2.35;;
53108;SDS011;39007;53.090;6.074;2022-12-07T16:42:49;7.82;;;2.70;;
53108;SDS011;39007;53.090;6.074;2022-12-07T16:45:15;7.55;;;2.40;;
53108;SDS011;39007;53.090;6.074;2022-12-07T16:47:41;8.15;;;2.65;;
53108;SDS011;39007;53.090;6.074;2022-12-07T16:50:07;7.45;;;3.20;;